Time;durP1;ratioP1;P1;durP2;ratioP2;P2;SDS_P1;SDS_P2;PMS_P1;PMS_P2;Temp;Humidity;BMP_temperature;BMP_pressure;BME280_temperature;BME280_humidity;BME280_pressure;Samples;Min_cycle;Max_cycle;Signal;HPM_P1;HPM_P2
2022/11/15 00:01:28;;;;;;;30.75;19.48;;;7.30;99.90;;;;;;5031293;28;20499;-65
2022/11/15 00:03:54;;;;;;;30.48;19.67;;;7.50;99.90;;;;;;5031257;28;20060;-64
2022/11/15 00:06:19;;;;;;;30.98;17.90;;;7.60;99.90;;;;;;5032594;28;20049;-63
2022/11/15 00:08:45;;;;;;;28.92;17.83;;;7.60;99.90;;;;;;5032651;28;20077;-65
2022/11/15 00:11:12;;;;;;;30.67;18.55;;;7.70;99.90;;;;;;5032592;28;20496;-65
2022/11/15 00:13:37;;;;;;;28.95;17.35;;;7.80;99.90;;;;;;5031260;28;20052;-64
2022/11/15 00:16:03;;;;;;;27.80;15.52;;;7.70;99.90;;;;;;5044170;28;20033;-65
2022/11/15 00:18:30;;;;;;;29.48;17.90;;;7.70;99.90;;;;;;5032820;28;20041;-65
2022/11/15 00:20:56;;;;;;;28.17;17.25;;;7.70;99.90;;;;;;5036489;28;20041;-64
2022/11/15 00:23:22;;;;;;;25.58;16.92;;;7.60;99.90;;;;;;5035065;28;20088;-65
2022/11/15 00:25:54;;;;;;;31.42;17.38;;;7.70;99.90;;;;;;5036343;28;20109;-65
2022/11/15 00:28:20;;;;;;;25.75;15.32;;;7.70;99.90;;;;;;5035001;28;20060;-65
2022/11/15 00:30:45;;;;;;;28.52;17.02;;;7.80;99.90;;;;;;5042755;28;20041;-65
2022/11/15 00:33:11;;;;;;;28.75;17.60;;;7.80;99.90;;;;;;5042582;28;20038;-65
2022/11/15 00:35:36;;;;;;;29.52;18.13;;;7.90;99.90;;;;;;5035982;28;20044;-65
2022/11/15 00:38:02;;;;;;;32.70;19.75;;;7.80;99.90;;;;;;5046527;28;20124;-65
2022/11/15 00:40:28;;;;;;;29.63;18.65;;;7.90;99.90;;;;;;5037031;28;20037;-65
2022/11/15 00:42:54;;;;;;;31.35;20.50;;;7.70;99.90;;;;;;5045859;28;20506;-65
2022/11/15 00:45:19;;;;;;;28.98;18.80;;;7.70;99.90;;;;;;5039003;28;20048;-65
2022/11/15 00:47:46;;;;;;;31.75;18.65;;;7.60;99.90;;;;;;5036107;28;20446;-65
2022/11/15 00:50:12;;;;;;;34.10;20.38;;;7.70;99.90;;;;;;5035845;28;20038;-64
2022/11/15 00:52:37;;;;;;;30.00;19.50;;;7.60;99.90;;;;;;5035735;28;20406;-65
2022/11/15 00:55:03;;;;;;;34.20;21.15;;;7.60;99.90;;;;;;5034573;28;20048;-65
2022/11/15 00:57:29;;;;;;;31.92;19.80;;;7.70;99.90;;;;;;5034437;28;20041;-65
2022/11/15 00:59:54;;;;;;;35.20;19.27;;;7.40;99.90;;;;;;5035855;28;20044;-65
2022/11/15 01:02:20;;;;;;;36.45;19.92;;;7.70;99.90;;;;;;5036296;28;20087;-65
2022/11/15 01:04:46;;;;;;;35.67;19.17;;;7.80;99.90;;;;;;5048026;28;20060;-65
2022/11/15 01:07:11;;;;;;;31.73;19.98;;;7.80;99.90;;;;;;5035529;28;20073;-64
2022/11/15 01:09:37;;;;;;;31.27;19.70;;;7.70;99.90;;;;;;5035914;28;20034;-65
2022/11/15 01:12:02;;;;;;;29.35;18.75;;;7.70;99.90;;;;;;5041811;28;20132;-65
2022/11/15 01:14:28;;;;;;;34.97;20.50;;;7.60;99.90;;;;;;5054075;28;20069;-65
2022/11/15 01:16:54;;;;;;;31.95;18.85;;;7.60;99.90;;;;;;5034573;28;20041;-65
2022/11/15 01:19:19;;;;;;;36.05;21.02;;;7.40;99.90;;;;;;5035406;28;20041;-65
2022/11/15 01:21:45;;;;;;;33.20;19.90;;;7.40;99.90;;;;;;5035205;28;20132;-65
2022/11/15 01:24:12;;;;;;;30.98;18.75;;;7.50;99.90;;;;;;5044952;28;20060;-65
2022/11/15 01:26:38;;;;;;;33.67;19.65;;;7.30;99.90;;;;;;5039417;28;20037;-65
2022/11/15 01:29:04;;;;;;;33.05;19.17;;;7.40;99.90;;;;;;5034236;28;20049;-65
2022/11/15 01:31:29;;;;;;;35.45;18.42;;;7.60;99.90;;;;;;5033011;28;20168;-65
2022/11/15 01:33:55;;;;;;;31.27;18.67;;;7.50;99.90;;;;;;5035042;28;20065;-65
2022/11/15 01:36:21;;;;;;;33.72;17.50;;;7.30;99.90;;;;;;5035182;28;20037;-65
2022/11/15 01:38:52;;;;;;;32.22;18.02;;;7.50;99.90;;;;;;5034897;28;20491;-65
2022/11/15 01:41:21;;;;;;;30.95;17.58;;;7.30;99.90;;;;;;5034954;28;20041;-65
2022/11/15 01:43:54;;;;;;;31.92;17.35;;;7.40;99.90;;;;;;5034903;28;20076;-65
2022/11/15 01:46:25;;;;;;;29.80;17.48;;;7.50;99.90;;;;;;5034843;28;20395;-64
2022/11/15 01:48:54;;;;;;;35.70;18.65;;;7.50;99.90;;;;;;5034714;28;20045;-64
2022/11/15 01:51:22;;;;;;;31.23;16.83;;;7.40;99.90;;;;;;5042829;28;20399;-65
2022/11/15 01:53:54;;;;;;;31.13;17.70;;;7.40;99.90;;;;;;5021282;28;20180;-65
2022/11/15 01:56:26;;;;;;;34.13;18.83;;;7.20;99.90;;;;;;5034796;28;20373;-65
2022/11/15 01:58:55;;;;;;;32.30;18.17;;;7.30;99.90;;;;;;5035655;28;20041;-64
2022/11/15 02:01:23;;;;;;;37.88;19.48;;;7.40;99.90;;;;;;5047057;28;20036;-65
2022/11/15 02:03:57;;;;;;;36.92;19.02;;;7.40;99.90;;;;;;5034328;28;20399;-66
2022/11/15 02:06:23;;;;;;;34.28;18.70;;;7.30;99.90;;;;;;5040215;28;20043;-65
2022/11/15 02:08:50;;;;;;;35.60;19.05;;;7.20;99.90;;;;;;5042110;28;20120;-65
2022/11/15 02:11:16;;;;;;;37.05;18.70;;;7.40;99.90;;;;;;5035595;28;20044;-65
2022/11/15 02:13:42;;;;;;;37.90;19.88;;;7.40;99.90;;;;;;5047038;28;20116;-64
2022/11/15 02:16:08;;;;;;;34.53;19.23;;;7.30;99.90;;;;;;5047433;28;20402;-65
2022/11/15 02:18:36;;;;;;;35.38;19.90;;;;;;;;;;5047697;28;20125;-65
2022/11/15 02:21:11;;;;;;;39.05;19.77;;;7.40;99.90;;;;;;5034434;28;20041;-65
2022/11/15 02:24:19;;;;;;;38.85;19.75;;;7.50;99.90;;;;;;5033144;28;20045;-65
2022/11/15 02:27:09;;;;;;;39.83;19.38;;;7.50;99.90;;;;;;5034043;28;20443;-65
2022/11/15 02:30:07;;;;;;;40.67;19.95;;;7.60;99.90;;;;;;5032969;28;20041;-65
2022/11/15 02:32:47;;;;;;;38.80;19.85;;;7.50;99.90;;;;;;5042493;28;20093;-65
2022/11/15 02:35:32;;;;;;;39.00;19.05;;;7.30;99.90;;;;;;5037242;28;20092;-65
2022/11/15 02:38:10;;;;;;;40.85;19.80;;;7.30;99.90;;;;;;5043961;28;20045;-65
2022/11/15 02:40:46;;;;;;;43.08;20.33;;;;;;;;;;5038467;28;20033;-65
2022/11/15 02:46:09;;;;;;;40.85;21.70;;;7.60;99.90;;;;;;5033952;28;20529;-65
2022/11/15 02:48:35;;;;;;;45.00;21.58;;;;;;;;;;5032396;28;20057;-65
2022/11/15 02:51:01;;;;;;;40.40;19.25;;;7.50;99.90;;;;;;5033739;28;20049;-65
2022/11/15 02:53:27;;;;;;;45.75;20.00;;;7.60;99.90;;;;;;5034803;28;20389;-65
2022/11/15 02:55:54;;;;;;;38.38;19.02;;;7.70;99.90;;;;;;5053437;28;20048;-65
2022/11/15 02:58:39;;;;;;;44.22;21.15;;;8.00;99.90;;;;;;5049629;28;20399;-65
2022/11/15 03:01:16;;;;;;;44.42;21.98;;;7.60;99.90;;;;;;5038149;28;20044;-65
2022/11/15 03:04:01;;;;;;;47.88;21.67;;;7.70;99.90;;;;;;5038192;28;20044;-65
2022/11/15 03:06:32;;;;;;;47.47;22.10;;;7.80;99.90;;;;;;5039969;28;20088;-65
2022/11/15 03:09:06;;;;;;;48.03;23.45;;;7.60;99.90;;;;;;5037146;28;20451;-65
2022/11/15 03:11:41;;;;;;;51.58;23.35;;;7.70;99.90;;;;;;5033547;28;20112;-65
2022/11/15 03:14:21;;;;;;;52.00;23.90;;;7.70;99.90;;;;;;5039829;28;20048;-65
2022/11/15 03:17:09;;;;;;;51.00;21.65;;;7.80;99.90;;;;;;5053003;28;20044;-65
2022/11/15 03:19:47;;;;;;;53.63;21.95;;;7.70;99.90;;;;;;5042498;28;20048;-66
2022/11/15 03:22:16;;;;;;;45.78;21.83;;;;;;;;;;5033338;28;20084;-65
2022/11/15 03:24:45;;;;;;;51.85;22.95;;;7.80;99.90;;;;;;5042661;28;20039;-65
2022/11/15 03:27:14;;;;;;;49.50;22.88;;;7.90;99.90;;;;;;5051520;28;20407;-65
2022/11/15 03:29:45;;;;;;;56.45;23.67;;;7.80;99.90;;;;;;5043864;28;20546;-65
2022/11/15 03:32:21;;;;;;;46.58;23.45;;;8.00;99.90;;;;;;5046559;28;20528;-65
2022/11/15 03:35:07;;;;;;;49.20;22.25;;;7.90;99.90;;;;;;5052905;28;20124;-65
2022/11/15 03:37:52;;;;;;;53.55;24.00;;;8.00;99.90;;;;;;5051513;28;20040;-64
2022/11/15 03:40:21;;;;;;;;;;;7.80;99.90;;;;;;5040812;28;20191;-65
2022/11/15 03:43:02;;;;;;;50.47;22.67;;;8.10;99.90;;;;;;5047005;28;19917;-65
2022/11/15 03:45:33;;;;;;;52.88;23.63;;;8.10;99.90;;;;;;5044953;28;20407;-65
2022/11/15 03:48:05;;;;;;;58.42;24.55;;;8.00;99.90;;;;;;5046658;28;20053;-65
2022/11/15 03:50:31;;;;;;;50.97;23.27;;;8.10;99.90;;;;;;5044625;28;20045;-65
2022/11/15 03:52:58;;;;;;;63.10;27.05;;;8.10;99.90;;;;;;5038740;28;20037;-65
2022/11/15 03:55:23;;;;;;;62.90;28.67;;;8.00;99.90;;;;;;5055340;28;20041;-65
2022/11/15 03:57:51;;;;;;;63.45;26.42;;;8.10;99.90;;;;;;5039580;28;20060;-65
2022/11/15 04:00:17;;;;;;;74.13;27.80;;;8.10;99.90;;;;;;5045150;28;20037;-65
2022/11/15 04:02:42;;;;;;;63.85;26.55;;;8.10;99.90;;;;;;5042572;28;20678;-65
2022/11/15 04:05:08;;;;;;;55.72;25.50;;;8.20;99.90;;;;;;5055493;28;20053;-65
2022/11/15 04:07:34;;;;;;;67.50;30.10;;;8.10;99.90;;;;;;5044369;28;20098;-65
2022/11/15 04:10:02;;;;;;;70.63;28.27;;;8.00;99.90;;;;;;5038189;28;20116;-65
2022/11/15 04:12:32;;;;;;;61.40;26.80;;;8.10;99.90;;;;;;5044782;28;20071;-65
2022/11/15 04:15:09;;;;;;;71.63;29.65;;;8.20;99.90;;;;;;5053562;28;20053;-65
2022/11/15 04:17:41;;;;;;;75.97;28.95;;;8.30;99.90;;;;;;5045992;28;20068;-65
2022/11/15 04:26:01;;;;;;;73.60;28.35;;;8.30;99.90;;;;;;5043704;28;20060;-65
2022/11/15 04:28:27;;;;;;;73.38;29.70;;;8.30;99.90;;;;;;5055460;28;20383;-65
2022/11/15 04:30:52;;;;;;;81.75;32.90;;;8.40;99.90;;;;;;5035098;28;20044;-65
2022/11/15 04:33:18;;;;;;;78.18;30.38;;;8.40;99.90;;;;;;5036048;28;20128;-65
2022/11/15 04:37:11;;;;;;;89.50;32.38;;;8.40;99.90;;;;;;5036022;28;20029;-65
2022/11/15 04:38:29;;;;;;;;;;;8.50;99.90;;;;;;5036433;28;20053;-65
2022/11/15 04:40:54;;;;;;;87.68;31.90;;;8.50;99.90;;;;;;5034847;28;20000;-65
2022/11/15 04:43:20;;;;;;;85.68;34.17;;;8.40;99.90;;;;;;5047666;28;20055;-65
2022/11/15 04:45:46;;;;;;;99.60;35.13;;;8.60;99.90;;;;;;5052332;28;20040;-65
2022/11/15 04:48:11;;;;;;;101.45;37.05;;;8.60;99.90;;;;;;5035042;28;20136;-65
2022/11/15 04:50:37;;;;;;;100.88;35.72;;;8.70;99.90;;;;;;5049883;28;20041;-65
2022/11/15 04:53:02;;;;;;;107.93;39.05;;;8.70;99.90;;;;;;5041890;28;20053;-65
2022/11/15 04:55:28;;;;;;;105.60;40.20;;;8.90;99.90;;;;;;5042481;28;20033;-65
2022/11/15 04:57:59;;;;;;;107.30;40.38;;;8.80;99.90;;;;;;5055170;28;20072;-65
2022/11/15 05:00:24;;;;;;;112.43;41.22;;;8.70;99.90;;;;;;5043564;28;20049;-65
2022/11/15 05:05:35;;;;;;;112.90;41.83;;;8.90;99.90;;;;;;5055067;28;20499;-65
2022/11/15 05:08:00;;;;;;;120.50;42.42;;;8.90;99.90;;;;;;5050383;28;20038;-65
2022/11/15 05:10:26;;;;;;;108.00;40.75;;;8.80;99.90;;;;;;5034431;28;20037;-65
2022/11/15 05:12:52;;;;;;;113.53;41.95;;;8.90;99.90;;;;;;5046825;28;20063;-65
2022/11/15 05:15:17;;;;;;;113.20;41.15;;;9.00;99.90;;;;;;5050689;28;20088;-65
2022/11/15 05:17:43;;;;;;;117.10;41.17;;;9.10;99.90;;;;;;5035518;28;20044;-65
2022/11/15 05:20:09;;;;;;;119.40;42.85;;;9.00;99.90;;;;;;5051782;28;20044;-65
2022/11/15 05:22:34;;;;;;;128.52;42.17;;;9.30;99.90;;;;;;5046906;28;20041;-65
2022/11/15 05:25:00;;;;;;;118.10;42.15;;;9.30;99.90;;;;;;5049399;28;20115;-65
2022/11/15 05:27:25;;;;;;;117.53;44.13;;;9.10;99.90;;;;;;5040543;28;20048;-65
2022/11/15 05:29:51;;;;;;;116.15;42.58;;;9.30;99.90;;;;;;5042878;28;20042;-65
2022/11/15 05:32:17;;;;;;;126.88;44.65;;;9.00;99.90;;;;;;5039583;28;20064;-65
2022/11/15 05:34:43;;;;;;;117.15;44.05;;;9.30;99.90;;;;;;5054881;28;20037;-65
2022/11/15 05:37:09;;;;;;;116.68;44.90;;;9.20;99.90;;;;;;5041106;28;20129;-65
2022/11/15 05:39:34;;;;;;;111.35;43.83;;;9.30;99.90;;;;;;5053756;28;20037;-65
2022/11/15 05:42:07;;;;;;;121.13;43.13;;;9.50;99.90;;;;;;5053060;28;20403;-65
2022/11/15 05:44:33;;;;;;;115.55;42.33;;;9.50;99.90;;;;;;5035110;28;20037;-65
2022/11/15 05:46:59;;;;;;;130.27;46.45;;;9.80;99.90;;;;;;5034940;28;20052;-65
2022/11/15 05:49:30;;;;;;;113.93;44.95;;;9.50;99.90;;;;;;5053171;28;20394;-65
2022/11/15 05:51:57;;;;;;;116.15;43.03;;;9.50;99.90;;;;;;5054750;28;20033;-65
2022/11/15 05:54:24;;;;;;;123.18;45.28;;;9.50;99.90;;;;;;5036022;28;20502;-65
2022/11/15 05:56:50;;;;;;;108.07;43.97;;;9.50;99.90;;;;;;5045593;28;20048;-65
2022/11/15 05:59:16;;;;;;;105.97;43.28;;;9.60;99.90;;;;;;5053271;28;20041;-65
2022/11/15 06:01:42;;;;;;;108.97;42.22;;;9.60;99.90;;;;;;5036551;28;20044;-65
2022/11/15 06:04:08;;;;;;;113.43;40.92;;;9.70;99.90;;;;;;5054175;28;20136;-65
2022/11/15 06:06:33;;;;;;;103.32;40.03;;;9.70;99.90;;;;;;5037939;28;20084;-65
2022/11/15 06:08:59;;;;;;;112.38;43.50;;;9.90;99.90;;;;;;5046308;28;20475;-65
2022/11/15 06:11:24;;;;;;;113.80;43.42;;;9.80;99.90;;;;;;5054337;28;20045;-65
2022/11/15 06:13:50;;;;;;;100.93;40.50;;;9.90;99.90;;;;;;5053054;28;20064;-65
2022/11/15 06:16:15;;;;;;;101.03;42.17;;;10.00;99.90;;;;;;5052541;28;20380;-65
2022/11/15 06:18:41;;;;;;;104.93;40.25;;;10.00;99.90;;;;;;5054010;28;20048;-65
2022/11/15 06:21:07;;;;;;;98.15;39.90;;;10.20;99.90;;;;;;5054195;28;20033;-65
2022/11/15 06:23:33;;;;;;;104.32;39.05;;;10.10;99.90;;;;;;5054064;28;20045;-65
2022/11/15 06:26:00;;;;;;;100.10;38.55;;;10.40;99.90;;;;;;5044084;28;20085;-65
2022/11/15 06:28:30;;;;;;;95.22;39.40;;;10.10;99.90;;;;;;5046748;28;20447;-65
2022/11/15 06:30:56;;;;;;;97.43;38.35;;;10.10;99.90;;;;;;5040181;28;20082;-65
2022/11/15 06:33:22;;;;;;;98.32;39.53;;;10.10;99.90;;;;;;5052614;28;20056;-65
2022/11/15 06:35:47;;;;;;;90.90;39.78;;;10.00;99.90;;;;;;5038493;28;20033;-65
2022/11/15 06:38:13;;;;;;;95.82;39.30;;;10.10;99.90;;;;;;5041469;28;20046;-65
2022/11/15 06:40:39;;;;;;;88.75;38.30;;;10.10;99.90;;;;;;5049905;28;20479;-65
2022/11/15 06:43:05;;;;;;;82.00;35.58;;;10.00;99.90;;;;;;5052829;28;20384;-65
2022/11/15 06:45:31;;;;;;;92.07;37.72;;;10.20;99.90;;;;;;5053624;28;20506;-65
2022/11/15 06:47:57;;;;;;;82.63;36.10;;;10.20;99.90;;;;;;5046263;28;20042;-65
2022/11/15 06:50:23;;;;;;;82.72;37.97;;;10.10;99.90;;;;;;5032429;28;20052;-65
2022/11/15 06:52:49;;;;;;;81.18;35.85;;;10.40;99.90;;;;;;5051998;28;20049;-65
2022/11/15 06:55:14;;;;;;;78.85;36.88;;;10.20;99.90;;;;;;5042061;28;20108;-65
2022/11/15 06:57:47;;;;;;;83.45;36.13;;;10.20;99.90;;;;;;5051001;28;20033;-65
2022/11/15 07:00:14;;;;;;;82.30;35.95;;;10.40;99.90;;;;;;5041871;28;20037;-65
2022/11/15 07:02:39;;;;;;;77.35;35.80;;;10.50;99.90;;;;;;5050090;28;20084;-65
2022/11/15 07:05:05;;;;;;;75.85;35.40;;;;;;;;;;5037677;28;20091;-64
2022/11/15 07:07:31;;;;;;;72.85;34.97;;;10.40;99.90;;;;;;5053216;28;20389;-65
2022/11/15 07:09:56;;;;;;;72.05;34.35;;;10.50;99.90;;;;;;5035412;28;20116;-65
2022/11/15 07:12:22;;;;;;;78.63;33.72;;;10.50;99.90;;;;;;5040548;28;20491;-64
2022/11/15 07:14:47;;;;;;;71.63;34.33;;;10.40;99.90;;;;;;5039131;28;20112;-65
2022/11/15 07:17:13;;;;;;;74.38;32.92;;;10.40;99.90;;;;;;5053261;28;20033;-65
2022/11/15 07:19:39;;;;;;;74.93;34.85;;;;;;;;;;5051635;28;20056;-65
2022/11/15 07:22:04;;;;;;;76.15;34.25;;;10.40;99.90;;;;;;5045769;28;20495;-65
2022/11/15 07:24:30;;;;;;;72.65;34.58;;;10.50;99.90;;;;;;5031973;28;20037;-65
2022/11/15 07:26:55;;;;;;;64.47;31.48;;;10.50;99.90;;;;;;5033026;28;20078;-65
2022/11/15 07:29:21;;;;;;;65.18;31.90;;;10.50;99.90;;;;;;5033058;28;20235;-65
2022/11/15 07:31:47;;;;;;;69.65;34.15;;;10.50;99.90;;;;;;5032558;28;20494;-65
2022/11/15 07:34:12;;;;;;;69.40;31.95;;;10.50;99.90;;;;;;5032529;28;20548;-65
2022/11/15 07:36:38;;;;;;;66.22;31.88;;;;;;;;;;5031614;28;20037;-65
2022/11/15 07:39:04;;;;;;;60.22;32.13;;;10.60;99.90;;;;;;5036718;28;20112;-65
2022/11/15 07:41:29;;;;;;;69.07;32.42;;;10.90;99.90;;;;;;5030637;28;20040;-65
2022/11/15 07:43:55;;;;;;;61.78;30.73;;;10.60;99.90;;;;;;5037557;28;20052;-64
2022/11/15 07:46:20;;;;;;;65.35;32.65;;;10.50;99.90;;;;;;5032155;28;20037;-64
2022/11/15 07:48:46;;;;;;;62.50;29.75;;;;;;;;;;5032093;28;20042;-64
2022/11/15 07:51:16;;;;;;;64.20;30.75;;;10.80;99.90;;;;;;5030818;28;20036;-64
2022/11/15 07:53:43;;;;;;;60.67;29.90;;;;;;;;;;5030880;28;20050;-65
2022/11/15 07:56:09;;;;;;;58.70;30.98;;;10.90;99.90;;;;;;5031590;28;20038;-63
2022/11/15 07:58:35;;;;;;;62.22;31.40;;;10.80;99.90;;;;;;5042354;28;20100;-64
2022/11/15 08:01:05;;;;;;;63.03;31.35;;;;;;;;;;5047139;28;20484;-64
2022/11/15 08:03:31;;;;;;;57.05;31.20;;;;;;;;;;5035042;28;20041;-64
2022/11/15 08:05:57;;;;;;;58.58;30.60;;;;;;;;;;5050414;28;20460;-66
2022/11/15 08:08:23;;;;;;;55.67;30.20;;;;;;;;;;5049547;28;20041;-64
2022/11/15 08:10:49;;;;;;;53.53;28.75;;;;;;;;;;5043115;28;20037;-64
2022/11/15 08:13:14;;;;;;;58.75;32.15;;;10.80;99.90;;;;;;5035634;28;20045;-64
2022/11/15 08:15:40;;;;;;;57.53;29.15;;;;;;;;;;5030680;28;20037;-64
2022/11/15 08:18:11;;;;;;;55.53;29.98;;;10.90;99.90;;;;;;5031798;28;20511;-64
2022/11/15 08:20:37;;;;;;;51.10;28.67;;;10.90;99.90;;;;;;5030662;28;20053;-64
2022/11/15 08:23:03;;;;;;;50.70;28.65;;;;;;;;;;5014287;28;20041;-65
2022/11/15 08:25:31;;;;;;;65.93;31.48;;;10.90;99.90;;;;;;5030401;28;20179;-65
2022/11/15 08:27:59;;;;;;;59.55;31.02;;;11.10;99.90;;;;;;5031854;28;20549;-64
2022/11/15 08:30:25;;;;;;;50.40;28.02;;;;;;;;;;5030412;28;20037;-64
2022/11/15 08:32:52;;;;;;;51.22;27.58;;;;;;;;;;5031847;28;20045;-64
2022/11/15 08:35:18;;;;;;;52.33;28.65;;;11.10;99.90;;;;;;5030481;28;20407;-63
2022/11/15 08:37:45;;;;;;;55.65;27.63;;;11.20;99.90;;;;;;5029742;28;20049;-63
2022/11/15 08:40:10;;;;;;;52.35;28.15;;;11.10;99.90;;;;;;5032913;28;20373;-63
2022/11/15 08:42:36;;;;;;;51.92;25.83;;;;;;;;;;5033453;28;20115;-64
2022/11/15 08:45:03;;;;;;;43.30;26.42;;;11.20;99.90;;;;;;5042295;28;20499;-64
2022/11/15 08:47:28;;;;;;;50.38;26.90;;;11.20;99.90;;;;;;5042503;28;20051;-64
2022/11/15 08:49:54;;;;;;;43.50;26.85;;;11.20;99.90;;;;;;5039129;28;20034;-64
2022/11/15 08:52:19;;;;;;;49.83;27.15;;;11.40;99.90;;;;;;5048543;28;20037;-64
2022/11/15 08:54:46;;;;;;;49.08;28.15;;;11.20;99.90;;;;;;5040931;28;20029;-64
2022/11/15 08:57:12;;;;;;;43.03;26.17;;;;;;;;;;5046414;28;20509;-64
2022/11/15 08:59:37;;;;;;;44.42;24.98;;;11.30;99.90;;;;;;5033024;28;20072;-64
2022/11/15 09:02:04;;;;;;;38.28;24.33;;;;;;;;;;5032823;28;20116;-64
2022/11/15 09:04:30;;;;;;;49.35;26.58;;;11.30;99.90;;;;;;5039671;28;20092;-64
2022/11/15 09:06:56;;;;;;;41.78;25.15;;;;;;;;;;5039077;28;20025;-64
2022/11/15 09:09:22;;;;;;;45.28;25.85;;;11.40;99.90;;;;;;5043352;28;20052;-64
2022/11/15 09:11:47;;;;;;;49.38;27.35;;;11.30;99.90;;;;;;5043846;28;20033;-64
2022/11/15 09:14:14;;;;;;;44.53;25.23;;;11.40;99.90;;;;;;5032231;28;20037;-64
2022/11/15 09:16:39;;;;;;;44.63;27.08;;;11.40;99.90;;;;;;5033966;28;20034;-65
2022/11/15 09:19:05;;;;;;;39.65;25.73;;;11.40;99.90;;;;;;5034473;28;20037;-65
2022/11/15 09:21:31;;;;;;;42.58;23.80;;;11.40;99.90;;;;;;5039256;28;20088;-65
2022/11/15 09:23:57;;;;;;;45.63;25.77;;;11.50;99.90;;;;;;5033683;28;20045;-65
2022/11/15 09:26:23;;;;;;;45.20;25.02;;;;;;;;;;5037120;28;20112;-65
2022/11/15 09:28:49;;;;;;;39.13;25.40;;;11.50;99.90;;;;;;5035754;28;20122;-65
2022/11/15 09:31:15;;;;;;;47.28;24.73;;;11.60;99.90;;;;;;5034774;28;20049;-65
2022/11/15 09:33:43;;;;;;;41.65;26.52;;;11.30;99.90;;;;;;5038275;28;20033;-65
2022/11/15 09:36:09;;;;;;;43.40;25.50;;;11.60;99.90;;;;;;5050432;28;20047;-65
2022/11/15 09:38:36;;;;;;;42.38;25.95;;;11.50;99.90;;;;;;5039460;28;20125;-66
2022/11/15 09:41:13;;;;;;;43.63;25.17;;;11.60;99.90;;;;;;5038058;28;20095;-65
2022/11/15 09:44:16;;;;;;;38.78;22.20;;;11.50;99.90;;;;;;5034276;28;20047;-65
2022/11/15 09:46:56;;;;;;;40.17;23.35;;;11.70;99.90;;;;;;5035476;28;20459;-64
2022/11/15 09:49:23;;;;;;;37.22;22.52;;;11.50;99.90;;;;;;5034310;28;20064;-65
2022/11/15 09:51:53;;;;;;;33.70;22.83;;;11.60;99.90;;;;;;5033369;28;20046;-65
2022/11/15 09:54:30;;;;;;;38.47;22.35;;;11.60;99.90;;;;;;5045572;28;20127;-66
2022/11/15 09:57:18;;;;;;;37.33;22.00;;;11.80;99.90;;;;;;5035695;28;20116;-64
2022/11/15 10:00:27;;;;;;;32.72;22.33;;;11.70;99.90;;;;;;5034426;28;20392;-64
2022/11/15 10:03:02;;;;;;;34.55;22.10;;;11.80;99.90;;;;;;5035757;28;20120;-64
2022/11/15 10:05:29;;;;;;;34.78;19.08;;;11.70;99.90;;;;;;5034392;28;20072;-64
2022/11/15 10:08:12;;;;;;;34.38;22.10;;;12.00;99.90;;;;;;5034293;28;20481;-64
2022/11/15 10:10:46;;;;;;;34.85;20.52;;;11.80;99.90;;;;;;5043680;28;20045;-64
2022/11/15 10:13:34;;;;;;;31.03;20.23;;;11.90;99.90;;;;;;5037191;28;20063;-64
2022/11/15 10:16:24;;;;;;;31.65;19.05;;;12.00;99.90;;;;;;5034181;28;20507;-64
2022/11/15 10:18:51;;;;;;;33.63;19.77;;;;;;;;;;5033252;28;20045;-64
2022/11/15 10:21:30;;;;;;;27.92;18.48;;;12.00;99.90;;;;;;5039487;28;20059;-64
2022/11/15 10:23:56;;;;;;;29.38;18.73;;;11.80;99.90;;;;;;5034422;28;20034;-64
2022/11/15 10:26:23;;;;;;;29.30;19.92;;;12.00;99.90;;;;;;5037728;28;20045;-64
2022/11/15 10:28:49;;;;;;;28.63;17.08;;;11.90;99.90;;;;;;5036554;28;20500;-64
2022/11/15 10:31:23;;;;;;;35.40;19.05;;;12.00;99.90;;;;;;5043907;28;20037;-64
2022/11/15 10:33:49;;;;;;;26.48;17.83;;;12.10;99.90;;;;;;5041245;28;20041;-64
2022/11/15 10:36:18;;;;;;;29.13;17.95;;;12.10;99.90;;;;;;5032703;28;20049;-64
2022/11/15 10:38:50;;;;;;;28.13;15.73;;;12.10;99.90;;;;;;5035138;28;20041;-64
2022/11/15 10:41:22;;;;;;;23.65;16.50;;;12.10;99.90;;;;;;5040082;28;20033;-64
2022/11/15 10:44:06;;;;;;;24.52;17.55;;;;;;;;;;5036805;28;20551;-64
2022/11/15 10:46:34;;;;;;;27.30;16.58;;;12.10;99.90;;;;;;5040808;28;20044;-64
2022/11/15 10:49:20;;;;;;;25.83;17.45;;;12.10;99.90;;;;;;5035339;28;20116;-64
2022/11/15 10:51:48;;;;;;;24.52;16.63;;;;;;;;;;5033696;28;20517;-65
2022/11/15 10:54:20;;;;;;;25.23;16.63;;;12.10;99.90;;;;;;5044180;28;20059;-64
2022/11/15 10:56:51;;;;;;;23.42;15.80;;;12.20;99.90;;;;;;5035497;28;20434;-65
2022/11/15 10:59:29;;;;;;;21.67;16.08;;;12.20;99.90;;;;;;5036480;28;20076;-64
2022/11/15 11:01:55;;;;;;;18.67;14.15;;;12.20;99.90;;;;;;5033162;28;20056;-64
2022/11/15 11:04:21;;;;;;;16.77;12.60;;;12.10;99.90;;;;;;5033179;28;20053;-65
2022/11/15 11:06:49;;;;;;;17.25;12.40;;;12.20;99.90;;;;;;5036694;28;20049;-65
2022/11/15 11:09:35;;;;;;;15.75;11.70;;;12.20;99.90;;;;;;5050201;28;20053;-64
2022/11/15 11:12:02;;;;;;;20.65;11.48;;;12.20;99.90;;;;;;5051832;28;20085;-64
2022/11/15 11:14:32;;;;;;;18.25;11.30;;;12.10;99.90;;;;;;5052079;28;20055;-65
2022/11/15 11:17:03;;;;;;;17.13;11.55;;;;;;;;;;5051813;28;20495;-65
2022/11/15 11:19:32;;;;;;;14.60;9.00;;;12.20;99.90;;;;;;5053202;28;20086;-65
2022/11/15 11:22:09;;;;;;;12.75;9.45;;;12.30;99.90;;;;;;5029659;28;20475;-65
2022/11/15 11:24:47;;;;;;;14.30;8.85;;;12.30;99.90;;;;;;5041095;28;20577;-64
2022/11/15 11:27:35;;;;;;;10.25;8.05;;;12.40;99.90;;;;;;5052765;28;20043;-64
2022/11/15 11:30:09;;;;;;;13.00;8.23;;;12.30;99.90;;;;;;5052634;28;20041;-64
2022/11/15 11:32:41;;;;;;;11.32;8.57;;;12.30;99.90;;;;;;5033546;28;20124;-64
2022/11/15 11:35:20;;;;;;;12.55;8.27;;;12.30;99.90;;;;;;5051792;28;20072;-65
2022/11/15 11:38:01;;;;;;;13.00;7.07;;;12.40;99.90;;;;;;5044208;28;20053;-65
2022/11/15 11:40:34;;;;;;;12.02;6.20;;;12.30;99.90;;;;;;5034931;28;20041;-64
2022/11/15 11:43:31;;;;;;;8.70;5.97;;;12.10;99.90;;;;;;5041763;28;20044;-65
2022/11/15 11:46:24;;;;;;;12.30;6.75;;;12.20;99.90;;;;;;5042616;28;20060;-65
2022/11/15 11:49:12;;;;;;;11.20;6.22;;;12.30;99.90;;;;;;5046536;28;20048;-64
2022/11/15 11:52:09;;;;;;;11.70;6.15;;;12.20;99.90;;;;;;5052644;28;20490;-64
2022/11/15 11:54:46;;;;;;;11.30;5.85;;;12.20;99.90;;;;;;5043192;28;20064;-65
2022/11/15 11:57:37;;;;;;;8.90;5.97;;;12.30;99.90;;;;;;5051590;28;20402;-64
2022/11/15 12:00:23;;;;;;;8.40;6.05;;;12.20;99.90;;;;;;5028930;28;20088;-64
2022/11/15 12:03:07;;;;;;;9.80;5.70;;;12.40;99.90;;;;;;5032294;28;20190;-64
2022/11/15 12:05:43;;;;;;;13.50;7.13;;;12.50;99.90;;;;;;5040919;28;20045;-64
2022/11/15 12:08:32;;;;;;;8.52;5.10;;;12.80;99.90;;;;;;5040413;28;20037;-65
2022/11/15 12:11:16;;;;;;;7.35;4.95;;;12.80;99.90;;;;;;5032949;28;20034;-65
2022/11/15 12:13:43;;;;;;;11.57;5.40;;;13.10;99.90;;;;;;5035264;28;20400;-64
2022/11/15 12:16:21;;;;;;;8.98;4.75;;;13.00;99.90;;;;;;5034316;28;20045;-64
2022/11/15 12:18:51;;;;;;;5.72;4.22;;;13.00;99.90;;;;;;5055778;28;20040;-65
2022/11/15 12:21:39;;;;;;;8.23;4.70;;;12.80;99.90;;;;;;5054930;28;20029;-64
2022/11/15 12:24:11;;;;;;;7.13;3.90;;;12.90;99.90;;;;;;5052649;28;20044;-65
2022/11/15 12:26:50;;;;;;;7.10;4.05;;;12.90;99.90;;;;;;5036938;28;20029;-65
2022/11/15 12:29:18;;;;;;;8.35;4.38;;;12.80;99.90;;;;;;5041381;28;20408;-64
2022/11/15 12:31:50;;;;;;;11.02;4.50;;;12.80;99.90;;;;;;5041792;28;20041;-64
2022/11/15 12:34:21;;;;;;;6.72;3.83;;;12.80;99.90;;;;;;5039482;28;20127;-64
2022/11/15 12:36:49;;;;;;;5.70;3.65;;;12.90;99.90;;;;;;5036964;28;20049;-64
2022/11/15 12:39:16;;;;;;;8.57;3.83;;;12.90;99.90;;;;;;5034967;28;20046;-64
2022/11/15 12:41:44;;;;;;;4.18;3.08;;;12.90;99.90;;;;;;5039148;28;20038;-64
2022/11/15 12:44:32;;;;;;;8.20;3.42;;;12.80;99.90;;;;;;5035859;28;20542;-64
2022/11/15 12:46:57;;;;;;;7.20;3.30;;;12.90;99.90;;;;;;5035964;28;20406;-64
2022/11/15 12:49:23;;;;;;;5.15;3.33;;;;;;;;;;5037607;28;20040;-63
2022/11/15 12:51:48;;;;;;;8.23;3.08;;;13.10;99.90;;;;;;5034675;28;20168;-64
2022/11/15 12:54:23;;;;;;;5.15;3.25;;;13.00;99.90;;;;;;5037538;28;20048;-64
2022/11/15 12:57:15;;;;;;;6.75;2.97;;;13.00;99.90;;;;;;5038216;28;20037;-64
2022/11/15 12:59:55;;;;;;;10.30;3.22;;;;;;;;;;5028808;28;20403;-64
2022/11/15 13:02:30;;;;;;;4.93;3.10;;;13.00;99.90;;;;;;5035536;28;20045;-64
2022/11/15 13:05:18;;;;;;;;;;;12.90;99.90;;;;;;5035840;28;20056;-64
2022/11/15 13:07:46;;;;;;;5.43;3.00;;;13.10;99.90;;;;;;5047750;28;19916;-64
2022/11/15 13:10:12;;;;;;;5.50;2.60;;;12.90;99.90;;;;;;5055414;28;20037;-64